Terminal Aerodrome Forecast
Issued by NWS

Home | Current Version | Previous Version | Text Only | Print | Product List | Glossary On
Versions: 1 2 3 4 5 6 7 8 9 10 11 12 13 14 15 16 17 18
000
FTUS46 KMTR 261100
TAFSTS
TAF
KSTS 261120Z 2612/2712 VRB02KT P6SM OVC007
     FM261700 17004KT P6SM OVC010
     FM261900 17006KT P6SM BKN012
     FM262100 17008KT P6SM FEW015
     FM270400 16004KT P6SM BKN010
     FM270600 VRB03KT P6SM OVC008=

USA.gov is the U.S. government's official web portal to all federal, state and local government web resources and services.